KGCN/GCN METAR and TAF weather

Enter ICAO airport designator
Station Type Date Time Source
KGCN METAR 2022/11/26 09:54 UTC NOAA

KGCN 260954Z AUTO 08003KT 10SM CLR M11/M14 A3022 RMK AO2 SLP234 T11061139


Station Type Date Time Source
KGCN Decoded METAR 2022/11/26 09:54 UTC NOAA

GRAND CANYON NATL PARK AIRPORT , AZ, United States (KGCN) 35-57N 112-09W 2016M
Nov 26, 2022 - 04:54 AM EST / 2022.11.26 0954 UTC
Wind: from the E (080 degrees) at 3 MPH (3 KT):0
Visibility: 10 mile(s):0
Sky conditions: clear
Temperature: 12.9 F (-10.6 C)
Dew Point: 7.0 F (-13.9 C)
Relative Humidity: 76%
Pressure (altimeter): 30.22 in. Hg (1023 hPa)
ob: KGCN 260954Z AUTO 08003KT 10SM CLR M11/M14 A3022 RMK AO2 SLP234 T11061139
cycle: 10

Station Type Date Time Source
KGCN TAF 2022/11/26 06:22 UTC NOAA

TAF KGCN 260520Z 2606/2706 VRB03KT P6SM SKC
FM262000 27009G16KT P6SM SCT150
FM270200 VRB05KT P6SM BKN250

Example: see airport list